sensor_id;sensor_type;location;lat;lon;timestamp;pressure;altitude;pressure_sealevel;temperature;humidity
7109;BME280;29079;41.930;25.558;2023-04-02T00:07:47;98626.41;;;10.58;66.94
7109;BME280;29079;41.930;25.558;2023-04-02T00:10:26;98637.56;;;10.53;67.09
7109;BME280;29079;41.930;25.558;2023-04-02T00:13:03;98632.16;;;10.45;67.30
7109;BME280;29079;41.930;25.558;2023-04-02T00:15:38;98626.16;;;10.43;67.75
7109;BME280;29079;41.930;25.558;2023-04-02T00:18:13;98638.88;;;10.49;68.32
7109;BME280;29079;41.930;25.558;2023-04-02T00:20:52;98641.41;;;10.33;67.89
7109;BME280;29079;41.930;25.558;2023-04-02T00:23:27;98648.19;;;10.45;67.27
7109;BME280;29079;41.930;25.558;2023-04-02T00:26:00;98650.41;;;10.32;67.77
7109;BME280;29079;41.930;25.558;2023-04-02T00:28:34;98645.75;;;10.34;67.61
7109;BME280;29079;41.930;25.558;2023-04-02T00:31:08;98635.84;;;10.26;67.69
7109;BME280;29079;41.930;25.558;2023-04-02T00:33:42;98638.53;;;10.26;67.97
7109;BME280;29079;41.930;25.558;2023-04-02T00:36:17;98644.00;;;10.24;67.02
7109;BME280;29079;41.930;25.558;2023-04-02T00:38:51;98646.91;;;10.31;66.82
7109;BME280;29079;41.930;25.558;2023-04-02T00:41:25;98627.28;;;10.14;68.44
7109;BME280;29079;41.930;25.558;2023-04-02T00:44:03;98617.47;;;10.41;66.77
7109;BME280;29079;41.930;25.558;2023-04-02T00:46:38;98630.09;;;10.13;67.53
7109;BME280;29079;41.930;25.558;2023-04-02T00:49:22;98637.69;;;10.25;67.14
7109;BME280;29079;41.930;25.558;2023-04-02T00:51:56;98636.78;;;10.35;66.90
7109;BME280;29079;41.930;25.558;2023-04-02T00:54:36;98626.16;;;10.25;66.66
7109;BME280;29079;41.930;25.558;2023-04-02T00:57:12;98637.75;;;10.34;67.74
7109;BME280;29079;41.930;25.558;2023-04-02T00:59:50;98635.34;;;10.22;67.63
7109;BME280;29079;41.930;25.558;2023-04-02T01:02:28;98648.97;;;10.19;68.32
7109;BME280;29079;41.930;25.558;2023-04-02T01:05:03;98656.06;;;10.10;68.14
7109;BME280;29079;41.930;25.558;2023-04-02T01:07:46;98655.69;;;10.05;67.47
7109;BME280;29079;41.930;25.558;2023-04-02T01:10:26;98657.59;;;10.13;67.22
7109;BME280;29079;41.930;25.558;2023-04-02T01:13:07;98660.47;;;10.20;68.05
7109;BME280;29079;41.930;25.558;2023-04-02T01:15:47;98663.91;;;10.12;68.12
7109;BME280;29079;41.930;25.558;2023-04-02T01:18:26;98667.91;;;10.08;67.95
7109;BME280;29079;41.930;25.558;2023-04-02T01:23:57;98657.50;;;10.23;67.33
7109;BME280;29079;41.930;25.558;2023-04-02T01:26:35;98653.94;;;10.14;67.47
7109;BME280;29079;41.930;25.558;2023-04-02T01:29:14;98655.44;;;10.35;67.12
7109;BME280;29079;41.930;25.558;2023-04-02T01:31:48;98650.81;;;10.19;67.54
7109;BME280;29079;41.930;25.558;2023-04-02T01:34:23;98653.00;;;10.23;66.58
7109;BME280;29079;41.930;25.558;2023-04-02T01:37:03;98650.28;;;10.15;66.20
7109;BME280;29079;41.930;25.558;2023-04-02T01:39:41;98662.91;;;10.13;66.05
7109;BME280;29079;41.930;25.558;2023-04-02T01:42:18;98656.00;;;10.02;67.56
7109;BME280;29079;41.930;25.558;2023-04-02T01:44:58;98658.72;;;10.10;67.21
7109;BME280;29079;41.930;25.558;2023-04-02T01:47:33;98660.88;;;10.07;67.32
7109;BME280;29079;41.930;25.558;2023-04-02T01:50:12;98653.56;;;10.09;67.57
7109;BME280;29079;41.930;25.558;2023-04-02T01:52:49;98650.41;;;10.14;69.13
7109;BME280;29079;41.930;25.558;2023-04-02T01:55:24;98654.25;;;10.11;68.25
7109;BME280;29079;41.930;25.558;2023-04-02T01:58:01;98652.84;;;10.25;68.32
7109;BME280;29079;41.930;25.558;2023-04-02T02:00:36;98653.19;;;10.04;66.96
7109;BME280;29079;41.930;25.558;2023-04-02T02:03:13;98654.97;;;9.95;67.62
7109;BME280;29079;41.930;25.558;2023-04-02T02:05:47;98656.47;;;9.98;68.11
7109;BME280;29079;41.930;25.558;2023-04-02T02:08:22;98647.72;;;9.87;67.02
7109;BME280;29079;41.930;25.558;2023-04-02T02:10:57;98656.00;;;9.84;66.52
7109;BME280;29079;41.930;25.558;2023-04-02T02:13:30;98658.63;;;9.76;66.80
7109;BME280;29079;41.930;25.558;2023-04-02T02:16:08;98662.78;;;9.79;67.71
7109;BME280;29079;41.930;25.558;2023-04-02T02:18:44;98652.97;;;9.79;66.70
7109;BME280;29079;41.930;25.558;2023-04-02T02:21:20;98661.13;;;9.96;67.69
7109;BME280;29079;41.930;25.558;2023-04-02T02:23:55;98663.66;;;9.79;67.10
7109;BME280;29079;41.930;25.558;2023-04-02T02:26:28;98656.84;;;10.03;68.99
7109;BME280;29079;41.930;25.558;2023-04-02T02:29:04;98658.53;;;10.04;68.39
7109;BME280;29079;41.930;25.558;2023-04-02T02:31:40;98657.97;;;10.00;66.90
7109;BME280;29079;41.930;25.558;2023-04-02T02:34:17;98663.72;;;10.32;67.39
7109;BME280;29079;41.930;25.558;2023-04-02T02:36:54;98663.66;;;10.23;67.91
7109;BME280;29079;41.930;25.558;2023-04-02T02:39:28;98669.81;;;10.42;69.25
7109;BME280;29079;41.930;25.558;2023-04-02T02:42:07;98664.88;;;10.29;67.61
7109;BME280;29079;41.930;25.558;2023-04-02T02:44:42;98665.81;;;10.02;68.11
7109;BME280;29079;41.930;25.558;2023-04-02T02:47:18;98664.38;;;10.07;68.58
7109;BME280;29079;41.930;25.558;2023-04-02T02:49:55;98666.47;;;10.22;68.93
7109;BME280;29079;41.930;25.558;2023-04-02T02:52:30;98667.13;;;10.16;65.87
7109;BME280;29079;41.930;25.558;2023-04-02T02:55:04;98664.69;;;10.22;67.01
7109;BME280;29079;41.930;25.558;2023-04-02T02:57:39;98663.91;;;10.12;66.56
7109;BME280;29079;41.930;25.558;2023-04-02T03:00:14;98669.19;;;10.04;66.75
7109;BME280;29079;41.930;25.558;2023-04-02T03:02:51;98678.75;;;10.15;65.53
7109;BME280;29079;41.930;25.558;2023-04-02T03:05:27;98674.41;;;10.32;66.81
7109;BME280;29079;41.930;25.558;2023-04-02T03:08:01;98681.97;;;10.00;65.09
7109;BME280;29079;41.930;25.558;2023-04-02T03:10:35;98677.53;;;10.09;66.17
7109;BME280;29079;41.930;25.558;2023-04-02T03:13:14;98679.16;;;10.02;65.62
7109;BME280;29079;41.930;25.558;2023-04-02T03:15:55;98677.66;;;9.99;65.92
7109;BME280;29079;41.930;25.558;2023-04-02T03:18:38;98683.06;;;9.89;67.00
7109;BME280;29079;41.930;25.558;2023-04-02T03:21:15;98679.69;;;9.87;67.17
7109;BME280;29079;41.930;25.558;2023-04-02T03:23:52;98691.66;;;10.01;68.56
7109;BME280;29079;41.930;25.558;2023-04-02T03:26:29;98695.91;;;9.94;67.15
7109;BME280;29079;41.930;25.558;2023-04-02T03:29:09;98685.31;;;10.20;69.00
7109;BME280;29079;41.930;25.558;2023-04-02T03:31:46;98693.16;;;9.86;67.06
7109;BME280;29079;41.930;25.558;2023-04-02T03:34:21;98695.63;;;9.79;68.17
7109;BME280;29079;41.930;25.558;2023-04-02T03:36:57;98691.94;;;10.16;69.89
7109;BME280;29079;41.930;25.558;2023-04-02T03:39:34;98699.72;;;9.91;68.38
7109;BME280;29079;41.930;25.558;2023-04-02T03:42:11;98696.59;;;9.78;69.97
7109;BME280;29079;41.930;25.558;2023-04-02T03:44:47;98694.31;;;9.83;70.12
7109;BME280;29079;41.930;25.558;2023-04-02T03:47:23;98695.69;;;9.69;69.46
7109;BME280;29079;41.930;25.558;2023-04-02T03:50:02;98697.88;;;9.74;69.80
7109;BME280;29079;41.930;25.558;2023-04-02T03:52:36;98693.53;;;9.73;69.49
7109;BME280;29079;41.930;25.558;2023-04-02T03:55:10;98702.22;;;9.75;68.04
7109;BME280;29079;41.930;25.558;2023-04-02T03:57:50;98705.09;;;9.64;68.38
7109;BME280;29079;41.930;25.558;2023-04-02T04:00:26;98703.13;;;10.02;68.71
7109;BME280;29079;41.930;25.558;2023-04-02T04:03:04;98704.69;;;9.86;65.92
7109;BME280;29079;41.930;25.558;2023-04-02T04:05:44;98705.56;;;9.77;66.65
7109;BME280;29079;41.930;25.558;2023-04-02T04:08:21;98716.31;;;9.85;65.73
7109;BME280;29079;41.930;25.558;2023-04-02T04:10:56;98699.41;;;9.94;65.87
7109;BME280;29079;41.930;25.558;2023-04-02T04:13:34;98703.41;;;9.90;65.95
7109;BME280;29079;41.930;25.558;2023-04-02T04:16:12;98697.91;;;9.92;65.35
7109;BME280;29079;41.930;25.558;2023-04-02T04:18:48;98706.56;;;9.94;65.87
7109;BME280;29079;41.930;25.558;2023-04-02T04:21:29;98713.03;;;9.73;66.62
7109;BME280;29079;41.930;25.558;2023-04-02T04:24:12;98723.47;;;10.03;66.92
7109;BME280;29079;41.930;25.558;2023-04-02T04:26:49;98728.22;;;9.91;67.60
7109;BME280;29079;41.930;25.558;2023-04-02T04:29:29;98734.56;;;9.80;66.87
7109;BME280;29079;41.930;25.558;2023-04-02T04:32:08;98726.16;;;10.03;66.60
7109;BME280;29079;41.930;25.558;2023-04-02T04:34:47;98732.41;;;9.93;65.58
7109;BME280;29079;41.930;25.558;2023-04-02T04:37:25;98734.75;;;10.33;64.00
7109;BME280;29079;41.930;25.558;2023-04-02T04:40:08;98734.06;;;10.31;63.66
7109;BME280;29079;41.930;25.558;2023-04-02T04:42:43;98736.78;;;10.21;64.12
7109;BME280;29079;41.930;25.558;2023-04-02T04:45:23;98733.84;;;10.06;64.20
7109;BME280;29079;41.930;25.558;2023-04-02T04:48:00;98733.63;;;9.99;64.20
7109;BME280;29079;41.930;25.558;2023-04-02T04:50:36;98729.72;;;10.11;63.31
7109;BME280;29079;41.930;25.558;2023-04-02T04:53:14;98734.22;;;10.11;63.60
7109;BME280;29079;41.930;25.558;2023-04-02T04:55:48;98726.31;;;10.01;64.64
7109;BME280;29079;41.930;25.558;2023-04-02T04:58:23;98721.25;;;10.16;63.43
7109;BME280;29079;41.930;25.558;2023-04-02T05:00:58;98726.22;;;10.11;64.08
7109;BME280;29079;41.930;25.558;2023-04-02T05:03:34;98724.00;;;10.24;62.24
7109;BME280;29079;41.930;25.558;2023-04-02T05:06:10;98726.59;;;10.16;62.21
7109;BME280;29079;41.930;25.558;2023-04-02T05:08:47;98728.44;;;10.34;61.66
7109;BME280;29079;41.930;25.558;2023-04-02T05:11:22;98731.50;;;10.39;61.44
7109;BME280;29079;41.930;25.558;2023-04-02T05:13:59;98739.69;;;10.45;61.03
7109;BME280;29079;41.930;25.558;2023-04-02T05:16:35;98744.19;;;10.45;61.26
7109;BME280;29079;41.930;25.558;2023-04-02T05:19:11;98740.63;;;10.54;62.27
7109;BME280;29079;41.930;25.558;2023-04-02T05:21:48;98743.56;;;10.69;63.09
7109;BME280;29079;41.930;25.558;2023-04-02T05:24:32;98746.16;;;10.87;65.74
7109;BME280;29079;41.930;25.558;2023-04-02T05:27:08;98745.44;;;10.77;61.50
7109;BME280;29079;41.930;25.558;2023-04-02T05:29:48;98737.91;;;10.72;62.29
7109;BME280;29079;41.930;25.558;2023-04-02T05:32:24;98740.00;;;10.87;63.62
7109;BME280;29079;41.930;25.558;2023-04-02T05:34:59;98741.03;;;10.94;63.94
7109;BME280;29079;41.930;25.558;2023-04-02T05:37:37;98745.19;;;10.88;62.36
7109;BME280;29079;41.930;25.558;2023-04-02T05:40:14;98748.66;;;10.89;62.32
7109;BME280;29079;41.930;25.558;2023-04-02T05:42:51;98745.63;;;11.10;63.73
7109;BME280;29079;41.930;25.558;2023-04-02T05:45:27;98751.81;;;11.10;62.83
7109;BME280;29079;41.930;25.558;2023-04-02T05:48:05;98748.94;;;11.04;62.25
7109;BME280;29079;41.930;25.558;2023-04-02T05:50:39;98763.94;;;11.05;62.68
7109;BME280;29079;41.930;25.558;2023-04-02T05:53:15;98761.44;;;11.03;62.67
7109;BME280;29079;41.930;25.558;2023-04-02T05:55:52;98759.00;;;11.10;63.52
7109;BME280;29079;41.930;25.558;2023-04-02T05:58:29;98762.38;;;11.20;63.88
7109;BME280;29079;41.930;25.558;2023-04-02T06:01:23;98756.38;;;11.26;63.18
7109;BME280;29079;41.930;25.558;2023-04-02T06:03:59;98759.44;;;11.31;62.73
7109;BME280;29079;41.930;25.558;2023-04-02T06:06:45;98753.94;;;11.33;63.17
7109;BME280;29079;41.930;25.558;2023-04-02T06:09:21;98756.78;;;11.40;62.24
7109;BME280;29079;41.930;25.558;2023-04-02T06:12:00;98759.16;;;11.51;64.40
7109;BME280;29079;41.930;25.558;2023-04-02T06:14:36;98756.22;;;11.62;65.46
7109;BME280;29079;41.930;25.558;2023-04-02T06:17:10;98755.88;;;11.65;64.69
7109;BME280;29079;41.930;25.558;2023-04-02T06:19:45;98761.56;;;11.62;61.56
7109;BME280;29079;41.930;25.558;2023-04-02T06:22:19;98763.25;;;11.63;64.07
7109;BME280;29079;41.930;25.558;2023-04-02T06:24:56;98770.75;;;11.68;61.67
7109;BME280;29079;41.930;25.558;2023-04-02T06:27:32;98759.22;;;11.67;60.42
7109;BME280;29079;41.930;25.558;2023-04-02T06:30:06;98771.91;;;11.65;59.85
7109;BME280;29079;41.930;25.558;2023-04-02T06:32:46;98776.78;;;11.70;58.25
7109;BME280;29079;41.930;25.558;2023-04-02T06:35:19;98776.81;;;11.78;59.64
7109;BME280;29079;41.930;25.558;2023-04-02T06:37:52;98782.97;;;11.79;59.54
7109;BME280;29079;41.930;25.558;2023-04-02T06:40:32;98789.53;;;11.93;55.98
7109;BME280;29079;41.930;25.558;2023-04-02T06:43:09;98778.91;;;12.09;56.54
7109;BME280;29079;41.930;25.558;2023-04-02T06:45:45;98784.59;;;12.23;54.88
7109;BME280;29079;41.930;25.558;2023-04-02T06:48:24;98798.53;;;12.34;55.39
7109;BME280;29079;41.930;25.558;2023-04-02T06:50:58;98796.34;;;12.46;55.26
7109;BME280;29079;41.930;25.558;2023-04-02T06:53:34;98799.53;;;12.58;55.23
7109;BME280;29079;41.930;25.558;2023-04-02T06:56:12;98797.34;;;12.70;52.95
7109;BME280;29079;41.930;25.558;2023-04-02T06:58:52;98797.00;;;12.98;52.54
7109;BME280;29079;41.930;25.558;2023-04-02T07:01:26;98794.44;;;13.13;52.11
7109;BME280;29079;41.930;25.558;2023-04-02T07:04:01;98802.63;;;13.36;51.07
7109;BME280;29079;41.930;25.558;2023-04-02T07:06:34;98805.09;;;13.54;49.66
7109;BME280;29079;41.930;25.558;2023-04-02T07:09:07;98797.50;;;13.66;49.35
7109;BME280;29079;41.930;25.558;2023-04-02T07:11:42;98809.38;;;13.71;48.15
7109;BME280;29079;41.930;25.558;2023-04-02T07:14:16;98808.84;;;13.84;47.77
7109;BME280;29079;41.930;25.558;2023-04-02T07:16:49;98807.00;;;13.76;47.14
7109;BME280;29079;41.930;25.558;2023-04-02T07:19:23;98795.66;;;13.66;46.50
7109;BME280;29079;41.930;25.558;2023-04-02T07:21:56;98809.56;;;13.70;47.11
7109;BME280;29079;41.930;25.558;2023-04-02T07:24:29;98811.25;;;13.71;46.97
7109;BME280;29079;41.930;25.558;2023-04-02T07:27:01;98808.38;;;13.72;47.71
7109;BME280;29079;41.930;25.558;2023-04-02T07:29:36;98809.91;;;13.67;47.20
7109;BME280;29079;41.930;25.558;2023-04-02T07:32:13;98817.97;;;13.67;48.39
7109;BME280;29079;41.930;25.558;2023-04-02T07:34:46;98815.44;;;13.65;47.35
7109;BME280;29079;41.930;25.558;2023-04-02T07:37:19;98815.47;;;13.57;48.20
7109;BME280;29079;41.930;25.558;2023-04-02T07:39:52;98825.50;;;13.63;47.89
7109;BME280;29079;41.930;25.558;2023-04-02T07:42:25;98823.69;;;13.55;47.54
7109;BME280;29079;41.930;25.558;2023-04-02T07:45:00;98825.84;;;13.52;48.63
7109;BME280;29079;41.930;25.558;2023-04-02T07:47:36;98828.19;;;13.63;48.93
7109;BME280;29079;41.930;25.558;2023-04-02T07:50:10;98822.69;;;13.56;48.67
7109;BME280;29079;41.930;25.558;2023-04-02T07:52:43;98834.88;;;13.59;48.46
7109;BME280;29079;41.930;25.558;2023-04-02T07:55:16;98833.59;;;13.55;48.53
7109;BME280;29079;41.930;25.558;2023-04-02T07:57:49;98826.66;;;13.61;48.14
7109;BME280;29079;41.930;25.558;2023-04-02T08:00:24;98829.19;;;13.62;48.96
7109;BME280;29079;41.930;25.558;2023-04-02T08:02:59;98831.84;;;13.70;48.49
7109;BME280;29079;41.930;25.558;2023-04-02T08:05:33;98833.88;;;13.68;48.53
7109;BME280;29079;41.930;25.558;2023-04-02T08:08:06;98831.84;;;13.70;48.07
7109;BME280;29079;41.930;25.558;2023-04-02T08:10:39;98835.50;;;13.69;47.79
7109;BME280;29079;41.930;25.558;2023-04-02T08:13:13;98826.47;;;13.70;47.87
7109;BME280;29079;41.930;25.558;2023-04-02T08:15:48;98836.38;;;13.70;47.83
7109;BME280;29079;41.930;25.558;2023-04-02T08:18:21;98828.50;;;13.68;47.58
7109;BME280;29079;41.930;25.558;2023-04-02T08:20:55;98822.28;;;13.68;47.71
7109;BME280;29079;41.930;25.558;2023-04-02T08:23:28;98830.47;;;13.74;48.10
7109;BME280;29079;41.930;25.558;2023-04-02T08:26:02;98821.63;;;13.74;47.18
7109;BME280;29079;41.930;25.558;2023-04-02T08:28:35;98826.81;;;13.75;46.99
7109;BME280;29079;41.930;25.558;2023-04-02T08:31:10;98817.69;;;13.85;47.20
7109;BME280;29079;41.930;25.558;2023-04-02T08:33:44;98825.03;;;13.91;47.88
7109;BME280;29079;41.930;25.558;2023-04-02T08:36:29;98819.03;;;13.89;48.14
7109;BME280;29079;41.930;25.558;2023-04-02T08:39:05;98810.41;;;14.02;48.19
7109;BME280;29079;41.930;25.558;2023-04-02T08:41:43;98819.91;;;14.13;48.00
7109;BME280;29079;41.930;25.558;2023-04-02T08:44:20;98810.13;;;14.20;47.57
7109;BME280;29079;41.930;25.558;2023-04-02T08:47:01;98812.94;;;14.26;46.25
7109;BME280;29079;41.930;25.558;2023-04-02T08:49:36;98830.31;;;14.39;45.99
7109;BME280;29079;41.930;25.558;2023-04-02T08:52:23;98818.03;;;14.44;46.03
7109;BME280;29079;41.930;25.558;2023-04-02T08:54:57;98827.56;;;14.47;45.91
7109;BME280;29079;41.930;25.558;2023-04-02T08:57:33;98817.19;;;14.44;44.64
7109;BME280;29079;41.930;25.558;2023-04-02T09:00:15;98820.66;;;14.53;45.79
7109;BME280;29079;41.930;25.558;2023-04-02T09:03:09;98832.94;;;14.47;45.51
7109;BME280;29079;41.930;25.558;2023-04-02T09:05:52;98827.03;;;14.52;46.29
7109;BME280;29079;41.930;25.558;2023-04-02T09:08:26;98819.53;;;14.70;45.47
7109;BME280;29079;41.930;25.558;2023-04-02T09:11:05;98816.81;;;14.78;45.15
7109;BME280;29079;41.930;25.558;2023-04-02T09:13:39;98816.66;;;14.95;46.11
7109;BME280;29079;41.930;25.558;2023-04-02T09:16:16;98810.78;;;14.91;45.61
7109;BME280;29079;41.930;25.558;2023-04-02T09:18:54;98808.78;;;14.93;44.96
7109;BME280;29079;41.930;25.558;2023-04-02T09:21:32;98813.53;;;15.06;44.71
7109;BME280;29079;41.930;25.558;2023-04-02T09:24:07;98811.59;;;15.15;44.11
7109;BME280;29079;41.930;25.558;2023-04-02T09:26:41;98804.47;;;15.37;43.83
7109;BME280;29079;41.930;25.558;2023-04-02T09:32:05;98796.41;;;15.37;42.33
7109;BME280;29079;41.930;25.558;2023-04-02T09:34:41;98795.84;;;15.42;41.63
7109;BME280;29079;41.930;25.558;2023-04-02T09:37:15;98796.84;;;15.41;42.66
7109;BME280;29079;41.930;25.558;2023-04-02T09:39:48;98787.50;;;15.52;41.34
7109;BME280;29079;41.930;25.558;2023-04-02T09:42:29;98789.44;;;15.58;42.55
7109;BME280;29079;41.930;25.558;2023-04-02T09:45:13;98786.75;;;15.58;43.60
7109;BME280;29079;41.930;25.558;2023-04-02T09:47:47;98790.34;;;15.65;41.92
7109;BME280;29079;41.930;25.558;2023-04-02T09:50:26;98796.59;;;15.65;41.72
7109;BME280;29079;41.930;25.558;2023-04-02T09:53:15;98787.94;;;15.85;41.16
7109;BME280;29079;41.930;25.558;2023-04-02T09:55:48;98779.50;;;15.88;41.58
7109;BME280;29079;41.930;25.558;2023-04-02T09:58:22;98795.44;;;16.26;39.88
7109;BME280;29079;41.930;25.558;2023-04-02T10:00:55;98784.28;;;16.08;38.38
7109;BME280;29079;41.930;25.558;2023-04-02T10:03:28;98790.03;;;16.05;38.66
7109;BME280;29079;41.930;25.558;2023-04-02T10:06:06;98792.22;;;16.16;38.08
7109;BME280;29079;41.930;25.558;2023-04-02T10:08:40;98795.78;;;16.16;38.93
7109;BME280;29079;41.930;25.558;2023-04-02T10:11:15;98792.81;;;16.33;37.83
7109;BME280;29079;41.930;25.558;2023-04-02T10:13:52;98788.53;;;16.39;37.79
7109;BME280;29079;41.930;25.558;2023-04-02T10:16:28;98784.03;;;16.24;36.67
7109;BME280;29079;41.930;25.558;2023-04-02T10:19:05;98782.31;;;16.16;37.35
7109;BME280;29079;41.930;25.558;2023-04-02T10:21:45;98779.44;;;16.40;37.34
7109;BME280;29079;41.930;25.558;2023-04-02T10:24:20;98782.31;;;16.38;37.99
7109;BME280;29079;41.930;25.558;2023-04-02T10:26:56;98788.22;;;16.27;38.36
7109;BME280;29079;41.930;25.558;2023-04-02T10:32:36;98780.59;;;15.94;37.11
7109;BME280;29079;41.930;25.558;2023-04-02T10:35:14;98768.69;;;16.03;38.70
7109;BME280;29079;41.930;25.558;2023-04-02T10:38:02;98774.19;;;16.31;37.65
7109;BME280;29079;41.930;25.558;2023-04-02T10:40:38;98775.97;;;16.24;36.53
7109;BME280;29079;41.930;25.558;2023-04-02T10:46:13;98778.72;;;16.52;35.94
7109;BME280;29079;41.930;25.558;2023-04-02T10:48:50;98781.16;;;16.47;35.36
7109;BME280;29079;41.930;25.558;2023-04-02T10:51:27;98766.22;;;16.45;34.54
7109;BME280;29079;41.930;25.558;2023-04-02T10:54:05;98763.78;;;16.50;35.40
7109;BME280;29079;41.930;25.558;2023-04-02T10:56:40;98761.72;;;16.74;34.33
7109;BME280;29079;41.930;25.558;2023-04-02T10:59:22;98755.00;;;16.63;36.48
7109;BME280;29079;41.930;25.558;2023-04-02T11:01:57;98753.53;;;16.60;36.00
7109;BME280;29079;41.930;25.558;2023-04-02T11:04:34;98748.72;;;16.56;34.98
7109;BME280;29079;41.930;25.558;2023-04-02T11:07:12;98752.56;;;16.46;35.12
7109;BME280;29079;41.930;25.558;2023-04-02T11:09:49;98747.47;;;16.58;35.14
7109;BME280;29079;41.930;25.558;2023-04-02T11:12:36;98748.34;;;16.87;35.14
7109;BME280;29079;41.930;25.558;2023-04-02T11:15:13;98740.34;;;16.72;35.56
7109;BME280;29079;41.930;25.558;2023-04-02T11:17:48;98744.66;;;16.88;35.31
7109;BME280;29079;41.930;25.558;2023-04-02T11:23:30;98740.22;;;17.09;35.24
7109;BME280;29079;41.930;25.558;2023-04-02T11:29:14;98732.69;;;16.97;36.68
7109;BME280;29079;41.930;25.558;2023-04-02T11:31:49;98733.47;;;16.91;34.99
7109;BME280;29079;41.930;25.558;2023-04-02T11:37:37;98734.78;;;17.37;34.84
7109;BME280;29079;41.930;25.558;2023-04-02T11:45:53;98732.34;;;17.07;35.10
7109;BME280;29079;41.930;25.558;2023-04-02T11:48:29;98718.72;;;17.15;35.14
7109;BME280;29079;41.930;25.558;2023-04-02T11:51:09;98715.59;;;17.18;35.71
7109;BME280;29079;41.930;25.558;2023-04-02T11:53:47;98710.44;;;17.23;35.24
7109;BME280;29079;41.930;25.558;2023-04-02T11:56:25;98710.44;;;17.23;35.40
7109;BME280;29079;41.930;25.558;2023-04-02T11:59:02;98699.50;;;17.32;35.22
7109;BME280;29079;41.930;25.558;2023-04-02T12:02:01;98701.25;;;17.53;35.51
7109;BME280;29079;41.930;25.558;2023-04-02T12:04:52;98703.31;;;17.44;36.79
7109;BME280;29079;41.930;25.558;2023-04-02T12:07:33;98691.91;;;17.55;35.93
7109;BME280;29079;41.930;25.558;2023-04-02T12:10:14;98696.28;;;17.56;35.10
7109;BME280;29079;41.930;25.558;2023-04-02T12:12:49;98703.38;;;17.71;35.35
7109;BME280;29079;41.930;25.558;2023-04-02T12:15:28;98693.00;;;17.68;36.23
7109;BME280;29079;41.930;25.558;2023-04-02T12:18:08;98693.41;;;17.65;36.10
7109;BME280;29079;41.930;25.558;2023-04-02T12:20:47;98692.00;;;17.82;35.24
7109;BME280;29079;41.930;25.558;2023-04-02T12:23:22;98694.22;;;17.65;35.16
7109;BME280;29079;41.930;25.558;2023-04-02T12:25:57;98682.38;;;17.53;35.58
7109;BME280;29079;41.930;25.558;2023-04-02T12:28:30;98677.81;;;17.53;35.72
7109;BME280;29079;41.930;25.558;2023-04-02T12:31:10;98668.00;;;17.39;37.47
7109;BME280;29079;41.930;25.558;2023-04-02T12:33:45;98669.00;;;17.31;35.81
7109;BME280;29079;41.930;25.558;2023-04-02T12:36:23;98664.59;;;17.23;36.04
7109;BME280;29079;41.930;25.558;2023-04-02T12:38:56;98668.09;;;17.17;35.94
7109;BME280;29079;41.930;25.558;2023-04-02T12:41:30;98662.31;;;17.20;36.30
7109;BME280;29079;41.930;25.558;2023-04-02T12:44:05;98655.72;;;17.30;36.79
7109;BME280;29079;41.930;25.558;2023-04-02T12:46:42;98649.34;;;17.44;35.99
7109;BME280;29079;41.930;25.558;2023-04-02T12:49:21;98653.09;;;17.43;35.76
7109;BME280;29079;41.930;25.558;2023-04-02T12:51:55;98649.78;;;17.48;36.45
7109;BME280;29079;41.930;25.558;2023-04-02T12:54:29;98655.03;;;17.69;36.10
7109;BME280;29079;41.930;25.558;2023-04-02T12:57:19;98642.97;;;17.65;36.41
7109;BME280;29079;41.930;25.558;2023-04-02T12:59:52;98648.16;;;17.67;36.09
7109;BME280;29079;41.930;25.558;2023-04-02T13:02:27;98654.59;;;17.59;36.03
7109;BME280;29079;41.930;25.558;2023-04-02T13:05:02;98650.03;;;17.66;37.24
7109;BME280;29079;41.930;25.558;2023-04-02T13:07:35;98651.31;;;17.70;36.48
7109;BME280;29079;41.930;25.558;2023-04-02T13:10:21;98648.97;;;17.67;35.93
7109;BME280;29079;41.930;25.558;2023-04-02T13:12:58;98645.69;;;17.72;35.86
7109;BME280;29079;41.930;25.558;2023-04-02T13:15:35;98640.06;;;17.60;35.72
7109;BME280;29079;41.930;25.558;2023-04-02T13:18:16;98647.97;;;17.68;35.71
7109;BME280;29079;41.930;25.558;2023-04-02T13:20:56;98638.59;;;17.57;36.70
7109;BME280;29079;41.930;25.558;2023-04-02T13:23:34;98643.78;;;17.66;36.27
7109;BME280;29079;41.930;25.558;2023-04-02T13:26:10;98639.66;;;17.70;36.86
7109;BME280;29079;41.930;25.558;2023-04-02T13:28:56;98633.81;;;17.60;37.22
7109;BME280;29079;41.930;25.558;2023-04-02T13:31:30;98630.53;;;17.71;38.18
7109;BME280;29079;41.930;25.558;2023-04-02T13:34:13;98637.19;;;17.75;36.28
7109;BME280;29079;41.930;25.558;2023-04-02T13:36:49;98636.56;;;17.80;36.30
7109;BME280;29079;41.930;25.558;2023-04-02T13:39:22;98630.97;;;17.81;36.88
7109;BME280;29079;41.930;25.558;2023-04-02T13:41:56;98627.91;;;17.91;36.15
7109;BME280;29079;41.930;25.558;2023-04-02T13:44:30;98621.81;;;17.69;37.04
7109;BME280;29079;41.930;25.558;2023-04-02T13:47:04;98625.56;;;17.68;36.64
7109;BME280;29079;41.930;25.558;2023-04-02T13:49:37;98632.00;;;17.80;36.25
7109;BME280;29079;41.930;25.558;2023-04-02T13:52:12;98625.56;;;17.68;38.45
7109;BME280;29079;41.930;25.558;2023-04-02T13:54:47;98629.28;;;17.60;37.41
7109;BME280;29079;41.930;25.558;2023-04-02T13:57:22;98622.81;;;17.54;37.46
7109;BME280;29079;41.930;25.558;2023-04-02T13:59:55;98620.56;;;17.65;36.85
7109;BME280;29079;41.930;25.558;2023-04-02T14:02:28;98613.91;;;17.67;36.98
7109;BME280;29079;41.930;25.558;2023-04-02T14:05:03;98615.59;;;17.75;37.33
7109;BME280;29079;41.930;25.558;2023-04-02T14:07:47;98618.69;;;17.65;37.55
7109;BME280;29079;41.930;25.558;2023-04-02T14:10:25;98611.84;;;17.69;37.12
7109;BME280;29079;41.930;25.558;2023-04-02T14:13:08;98613.72;;;17.75;37.28
7109;BME280;29079;41.930;25.558;2023-04-02T14:15:50;98622.66;;;17.83;36.91
7109;BME280;29079;41.930;25.558;2023-04-02T14:18:31;98621.63;;;17.70;39.07
7109;BME280;29079;41.930;25.558;2023-04-02T14:21:13;98614.38;;;17.78;38.64
7109;BME280;29079;41.930;25.558;2023-04-02T14:23:53;98623.72;;;17.88;37.42
7109;BME280;29079;41.930;25.558;2023-04-02T14:26:31;98625.19;;;17.98;37.10